Alexander, IA

11:48 PM CDT on October 21, 2014 (GMT -0500)
Beeds Addition | Change Station
CLOSE
Current Station
Personal Weather Station
Location: Hampton, IA
Elevation: 1145 ft
Nearby Weather Stations

Elev 1145 ft 42.74 °N, 93.20 °W | Updated 8 seconds ago

Clear
Clear
43.3 °F
Feels Like 40 °F
N
5.4
Wind Variable Wind from SW
Gusts 6.9 mph

Today
High -- | Low -- °F
--% Chance of Precip.
Yesterday
High -- | Low -- °F
Precip. -- in
7:34 AM 6:21 PM
Waning Crescent, 3% visible
Pressure 30.17 in
Visibility 10.0 miles
Clouds Clear
Windchill 40 °F
Dew Point 40 °F
Humidity 89%
Rainfall 0.00 in
Snow Depth Not available.
UV 0 out of 12
Pollen 1.20 out of 12
Air Quality Not available.
Flu Activity Sporadic
METAR KCAV 220435Z AUTO 14009KT 10SM CLR 08/04 A3017 RMK AO2

More Conditions Fewer Conditions

Pressure 30.17 in
Visibility 10.0 miles
Clouds Clear
Windchill 40 °F
Dew Point 40 °F
Humidity 89%
Rainfall 0.00 in
Snow Depth Not available.
UV 0 out of 12
Pollen 1.20 out of 12
Air Quality Not available.
Flu Activity Sporadic
METAR KCAV 220435Z AUTO 14009KT 10SM CLR 08/04 A3017 RMK AO2

More Conditions Fewer Conditions

10-Day Weather Forecast

Almanac

Astronomy

Oct. 21, 2014 Rise Set
Actual Time 7:34 AM CDT 6:21 PM CDT
Civil Twilight 7:05 AM CDT 6:50 PM CDT
Nautical Twilight 6:32 AM CDT 7:23 PM CDT
Astronomical Twilight 5:59 AM CDT 7:56 PM CDT
Moon 5:16 AM CDT (10/21) 5:18 PM CDT (10/21)
Length of Visible Light 11h 44m
Length of Day
10h 47m
Tomorrow will be 2m 44s shorter.
Waning Crescent, 3% of the Moon is Illuminated
Oct 22
Waning Crescent
Oct 23
New
Oct 30
First Quarter
Nov 6
Full
Nov 14
Last Quarter

Community

WunderPhotos

Upload Photos

1,763,882 photos uploaded!

Nearby

Snow Depth

Station Depth Elevation
No new snow has been reported.

Earthquake Activity

City Distance Mag. Time & Date
No recent earthquake activity has been reported nearby.
Minimum magnitude displayed is 2.5.

Coastal Water Temperatures

Place Temperature
No Stations Reporting

Nearby Weather Stations